This is the latest recevied weather packets stored in our database for station/object EW7404. If no packets are shown the sender has not sent any weather packets the latest 10 day(s).
| Time | Temp. | Humidity | Pressure | Rain* | Wind** | Luminosity | Snow |
|---|---|---|---|---|---|---|---|
| 1777883415 | -3.33° C | 86% | 949.8 hPa | 0 mm | - | - | - |
| 1777882215 | -3.89° C | 84% | 949.7 hPa | 0 mm | - | - | - |
| 1777872016 | -6.11° C | 95% | 948 hPa | 6.1 mm | - | - | - |
| 1777871415 | -6.11° C | 95% | 948 hPa | 6.1 mm | - | - | - |
| 1777864815 | -6.11° C | 97% | 947.6 hPa | 0 mm | - | - | - |
| 1777863615 | -6.11° C | 100% | 947.6 hPa | 0 mm | - | - | - |
| 1777861815 | -6.11° C | 100% | 947.7 hPa | 0 mm | - | - | - |
| 1777859716 | -6.11° C | 100% | 947.7 hPa | 0 mm | - | - | - |
| 1777858516 | -6.11° C | 100% | 947.7 hPa | 0 mm | - | - | - |
| 1777854916 | -6.67° C | 100% | 947.6 hPa | 0 mm | - | - | - |
| 1777850115 | -7.22° C | 95% | 947.5 hPa | 6.35 mm | - | - | - |
| 1777846516 | -6.67° C | 91% | 947.1 hPa | 0 mm | - | - | - |
| 1777844715 | -6.67° C | 90% | 946.7 hPa | 0 mm | - | - | - |
| 1777844115 | -7.22° C | 89% | 946.8 hPa | 0 mm | - | - | - |
| 1777839615 | -8.89° C | 98% | 947.5 hPa | 6.1 mm | - | - | - |
| 1777838435 | -8.33° C | 100% | 947.6 hPa | 6.1 mm | - | - | - |
| 1777835435 | -7.78° C | 98% | 947.4 hPa | 0 mm | - | - | - |
| 1777833615 | -7.78° C | 100% | 947.3 hPa | 0 mm | - | - | - |
| 1777831816 | -7.22° C | 100% | 947.3 hPa | 0 mm | - | - | - |
| 1777827615 | -6.67° C | 100% | 947.2 hPa | 0 mm | - | - | - |
| 1777825815 | -6.67° C | 100% | 947.2 hPa | 0.25 mm | - | - | - |
| 1777821635 | -6.67° C | 100% | 947.2 hPa | 0 mm | - | - | - |
| 1777820415 | -6.67° C | 100% | 947.3 hPa | 0 mm | - | - | - |
| 1777819836 | -6.67° C | 100% | 947.4 hPa | 0.25 mm | - | - | - |
| 1777818615 | -6.67° C | 100% | 947.4 hPa | 0.25 mm | - | - | - |
* Rain latest hour (hover to see other rain measurements)
** Current wind speed in m/s (hover to see current wind gust speed)